sensor_id;sensor_type;location;lat;lon;timestamp;P1;durP1;ratioP1;P2;durP2;ratioP2
28519;SDS011;15732;48.534;20.382;2022-10-17T00:00:38;10.85;;;3.15;;
28519;SDS011;15732;48.534;20.382;2022-10-17T00:03:06;6.93;;;2.58;;
28519;SDS011;15732;48.534;20.382;2022-10-17T00:05:33;9.63;;;3.30;;
28519;SDS011;15732;48.534;20.382;2022-10-17T00:08:03;7.68;;;3.22;;
28519;SDS011;15732;48.534;20.382;2022-10-17T00:10:31;8.23;;;2.95;;
28519;SDS011;15732;48.534;20.382;2022-10-17T00:13:02;5.15;;;3.35;;
28519;SDS011;15732;48.534;20.382;2022-10-17T00:15:30;5.70;;;3.03;;
28519;SDS011;15732;48.534;20.382;2022-10-17T00:17:57;6.30;;;2.83;;
28519;SDS011;15732;48.534;20.382;2022-10-17T00:20:25;7.82;;;3.50;;
28519;SDS011;15732;48.534;20.382;2022-10-17T00:22:57;10.98;;;3.40;;
28519;SDS011;15732;48.534;20.382;2022-10-17T00:25:28;5.40;;;2.80;;
28519;SDS011;15732;48.534;20.382;2022-10-17T00:27:55;8.93;;;3.35;;
28519;SDS011;15732;48.534;20.382;2022-10-17T00:30:23;7.82;;;3.60;;
28519;SDS011;15732;48.534;20.382;2022-10-17T00:32:50;7.50;;;3.40;;
28519;SDS011;15732;48.534;20.382;2022-10-17T00:35:17;10.00;;;3.55;;
28519;SDS011;15732;48.534;20.382;2022-10-17T00:37:48;7.05;;;3.47;;
28519;SDS011;15732;48.534;20.382;2022-10-17T00:40:16;7.43;;;3.30;;
28519;SDS011;15732;48.534;20.382;2022-10-17T00:42:43;7.13;;;3.38;;
28519;SDS011;15732;48.534;20.382;2022-10-17T00:45:24;7.43;;;2.88;;
28519;SDS011;15732;48.534;20.382;2022-10-17T00:47:57;12.95;;;4.40;;
28519;SDS011;15732;48.534;20.382;2022-10-17T00:50:40;7.90;;;3.25;;
28519;SDS011;15732;48.534;20.382;2022-10-17T00:53:10;7.10;;;2.85;;
28519;SDS011;15732;48.534;20.382;2022-10-17T00:55:47;7.10;;;2.75;;
28519;SDS011;15732;48.534;20.382;2022-10-17T00:58:16;15.10;;;4.30;;
28519;SDS011;15732;48.534;20.382;2022-10-17T01:00:45;7.25;;;3.40;;
28519;SDS011;15732;48.534;20.382;2022-10-17T01:03:13;9.23;;;4.07;;
28519;SDS011;15732;48.534;20.382;2022-10-17T01:05:41;6.43;;;3.30;;
28519;SDS011;15732;48.534;20.382;2022-10-17T01:08:08;6.82;;;2.45;;
28519;SDS011;15732;48.534;20.382;2022-10-17T01:13:51;7.82;;;3.33;;
28519;SDS011;15732;48.534;20.382;2022-10-17T01:21:59;8.25;;;2.42;;
28519;SDS011;15732;48.534;20.382;2022-10-17T01:27:47;6.60;;;2.90;;
28519;SDS011;15732;48.534;20.382;2022-10-17T01:30:26;7.72;;;2.63;;
28519;SDS011;15732;48.534;20.382;2022-10-17T01:33:20;8.70;;;3.25;;
28519;SDS011;15732;48.534;20.382;2022-10-17T01:35:59;8.50;;;3.03;;
28519;SDS011;15732;48.534;20.382;2022-10-17T01:38:39;6.78;;;3.67;;
28519;SDS011;15732;48.534;20.382;2022-10-17T01:44:09;7.43;;;3.42;;
28519;SDS011;15732;48.534;20.382;2022-10-17T01:46:38;6.82;;;3.25;;
28519;SDS011;15732;48.534;20.382;2022-10-17T01:49:08;6.80;;;2.88;;
28519;SDS011;15732;48.534;20.382;2022-10-17T01:51:41;6.25;;;2.85;;
28519;SDS011;15732;48.534;20.382;2022-10-17T01:54:30;8.50;;;3.60;;
28519;SDS011;15732;48.534;20.382;2022-10-17T01:57:17;6.35;;;2.53;;
28519;SDS011;15732;48.534;20.382;2022-10-17T02:00:10;11.05;;;3.67;;
28519;SDS011;15732;48.534;20.382;2022-10-17T02:02:42;5.80;;;2.70;;
28519;SDS011;15732;48.534;20.382;2022-10-17T02:05:11;4.07;;;2.25;;
28519;SDS011;15732;48.534;20.382;2022-10-17T02:07:42;6.72;;;2.75;;
28519;SDS011;15732;48.534;20.382;2022-10-17T02:10:10;6.03;;;2.65;;
28519;SDS011;15732;48.534;20.382;2022-10-17T02:12:48;8.63;;;2.83;;
28519;SDS011;15732;48.534;20.382;2022-10-17T02:15:39;7.90;;;3.20;;
28519;SDS011;15732;48.534;20.382;2022-10-17T02:20:56;7.15;;;2.83;;
28519;SDS011;15732;48.534;20.382;2022-10-17T02:29:32;6.82;;;3.20;;
28519;SDS011;15732;48.534;20.382;2022-10-17T02:32:08;8.38;;;2.83;;
28519;SDS011;15732;48.534;20.382;2022-10-17T02:35:01;6.80;;;2.95;;
28519;SDS011;15732;48.534;20.382;2022-10-17T02:37:31;5.25;;;1.83;;
28519;SDS011;15732;48.534;20.382;2022-10-17T02:40:03;8.40;;;2.83;;
28519;SDS011;15732;48.534;20.382;2022-10-17T02:42:33;5.35;;;3.20;;
28519;SDS011;15732;48.534;20.382;2022-10-17T02:45:01;6.63;;;2.65;;
28519;SDS011;15732;48.534;20.382;2022-10-17T02:47:35;6.07;;;2.63;;
28519;SDS011;15732;48.534;20.382;2022-10-17T02:50:16;4.68;;;2.17;;
28519;SDS011;15732;48.534;20.382;2022-10-17T02:52:54;5.82;;;2.58;;
28519;SDS011;15732;48.534;20.382;2022-10-17T02:57:53;5.47;;;2.88;;
28519;SDS011;15732;48.534;20.382;2022-10-17T03:00:25;7.55;;;3.45;;
28519;SDS011;15732;48.534;20.382;2022-10-17T03:05:27;7.50;;;2.30;;
28519;SDS011;15732;48.534;20.382;2022-10-17T03:07:55;4.55;;;2.17;;
28519;SDS011;15732;48.534;20.382;2022-10-17T03:10:22;8.55;;;3.38;;
28519;SDS011;15732;48.534;20.382;2022-10-17T03:12:53;10.52;;;3.38;;
28519;SDS011;15732;48.534;20.382;2022-10-17T03:15:21;5.28;;;2.10;;
28519;SDS011;15732;48.534;20.382;2022-10-17T03:17:48;5.32;;;2.20;;
28519;SDS011;15732;48.534;20.382;2022-10-17T03:20:16;10.10;;;2.15;;
28519;SDS011;15732;48.534;20.382;2022-10-17T03:22:43;8.05;;;3.35;;
28519;SDS011;15732;48.534;20.382;2022-10-17T03:25:11;8.65;;;3.88;;
28519;SDS011;15732;48.534;20.382;2022-10-17T03:27:38;9.05;;;3.55;;
28519;SDS011;15732;48.534;20.382;2022-10-17T03:30:06;9.02;;;3.25;;
28519;SDS011;15732;48.534;20.382;2022-10-17T03:32:35;7.57;;;3.03;;
28519;SDS011;15732;48.534;20.382;2022-10-17T03:35:06;7.43;;;2.78;;
28519;SDS011;15732;48.534;20.382;2022-10-17T03:37:34;6.28;;;2.35;;
28519;SDS011;15732;48.534;20.382;2022-10-17T03:40:01;7.03;;;2.38;;
28519;SDS011;15732;48.534;20.382;2022-10-17T03:42:30;9.38;;;2.85;;
28519;SDS011;15732;48.534;20.382;2022-10-17T03:44:57;5.07;;;2.97;;
28519;SDS011;15732;48.534;20.382;2022-10-17T03:47:28;6.35;;;2.72;;
28519;SDS011;15732;48.534;20.382;2022-10-17T03:50:00;7.07;;;2.78;;
28519;SDS011;15732;48.534;20.382;2022-10-17T03:52:27;7.50;;;2.83;;
28519;SDS011;15732;48.534;20.382;2022-10-17T03:54:54;6.90;;;3.33;;
28519;SDS011;15732;48.534;20.382;2022-10-17T03:57:21;8.15;;;2.85;;
28519;SDS011;15732;48.534;20.382;2022-10-17T03:59:49;7.75;;;2.47;;
28519;SDS011;15732;48.534;20.382;2022-10-17T04:02:17;17.90;;;3.10;;
28519;SDS011;15732;48.534;20.382;2022-10-17T04:04:48;17.42;;;2.80;;
28519;SDS011;15732;48.534;20.382;2022-10-17T04:07:16;5.63;;;1.65;;
28519;SDS011;15732;48.534;20.382;2022-10-17T04:09:43;3.70;;;1.88;;
28519;SDS011;15732;48.534;20.382;2022-10-17T04:12:14;7.88;;;3.42;;
28519;SDS011;15732;48.534;20.382;2022-10-17T04:14:42;5.15;;;2.38;;
28519;SDS011;15732;48.534;20.382;2022-10-17T04:17:10;6.33;;;2.40;;
28519;SDS011;15732;48.534;20.382;2022-10-17T04:19:37;5.70;;;2.38;;
28519;SDS011;15732;48.534;20.382;2022-10-17T04:22:08;6.15;;;2.72;;
28519;SDS011;15732;48.534;20.382;2022-10-17T04:24:36;7.65;;;2.53;;
28519;SDS011;15732;48.534;20.382;2022-10-17T04:27:07;10.23;;;2.67;;
28519;SDS011;15732;48.534;20.382;2022-10-17T04:29:38;7.43;;;3.05;;
28519;SDS011;15732;48.534;20.382;2022-10-17T04:32:09;6.07;;;2.72;;
28519;SDS011;15732;48.534;20.382;2022-10-17T04:34:37;6.45;;;2.50;;
28519;SDS011;15732;48.534;20.382;2022-10-17T04:37:08;7.70;;;2.75;;
28519;SDS011;15732;48.534;20.382;2022-10-17T04:39:35;6.38;;;3.20;;
28519;SDS011;15732;48.534;20.382;2022-10-17T04:42:05;5.40;;;1.90;;
28519;SDS011;15732;48.534;20.382;2022-10-17T04:44:32;8.15;;;2.13;;
28519;SDS011;15732;48.534;20.382;2022-10-17T04:47:00;4.30;;;2.05;;
28519;SDS011;15732;48.534;20.382;2022-10-17T04:49:31;9.73;;;3.05;;
28519;SDS011;15732;48.534;20.382;2022-10-17T04:52:03;10.98;;;2.97;;
28519;SDS011;15732;48.534;20.382;2022-10-17T04:54:35;8.80;;;4.75;;
28519;SDS011;15732;48.534;20.382;2022-10-17T04:57:02;8.75;;;3.00;;
28519;SDS011;15732;48.534;20.382;2022-10-17T04:59:33;5.80;;;2.45;;
28519;SDS011;15732;48.534;20.382;2022-10-17T05:02:00;7.28;;;2.90;;
28519;SDS011;15732;48.534;20.382;2022-10-17T05:04:28;7.32;;;3.08;;
28519;SDS011;15732;48.534;20.382;2022-10-17T05:06:55;9.77;;;3.30;;
28519;SDS011;15732;48.534;20.382;2022-10-17T05:09:23;7.28;;;3.10;;
28519;SDS011;15732;48.534;20.382;2022-10-17T05:11:50;5.88;;;2.65;;
28519;SDS011;15732;48.534;20.382;2022-10-17T05:14:18;8.25;;;3.13;;
28519;SDS011;15732;48.534;20.382;2022-10-17T05:16:45;6.57;;;2.58;;
28519;SDS011;15732;48.534;20.382;2022-10-17T05:19:12;6.57;;;3.25;;
28519;SDS011;15732;48.534;20.382;2022-10-17T05:21:39;7.20;;;2.47;;
28519;SDS011;15732;48.534;20.382;2022-10-17T05:24:08;8.55;;;2.08;;
28519;SDS011;15732;48.534;20.382;2022-10-17T05:26:36;5.45;;;2.17;;
28519;SDS011;15732;48.534;20.382;2022-10-17T05:29:04;6.38;;;2.85;;
28519;SDS011;15732;48.534;20.382;2022-10-17T05:31:32;11.38;;;3.20;;
28519;SDS011;15732;48.534;20.382;2022-10-17T05:33:59;3.92;;;1.88;;
28519;SDS011;15732;48.534;20.382;2022-10-17T05:36:27;9.85;;;2.63;;
28519;SDS011;15732;48.534;20.382;2022-10-17T05:38:55;5.28;;;2.78;;
28519;SDS011;15732;48.534;20.382;2022-10-17T05:41:22;7.50;;;2.65;;
28519;SDS011;15732;48.534;20.382;2022-10-17T05:43:50;6.18;;;2.47;;
28519;SDS011;15732;48.534;20.382;2022-10-17T05:46:17;7.35;;;3.53;;
28519;SDS011;15732;48.534;20.382;2022-10-17T05:48:44;3.50;;;1.65;;
28519;SDS011;15732;48.534;20.382;2022-10-17T05:51:15;7.68;;;3.85;;
28519;SDS011;15732;48.534;20.382;2022-10-17T05:53:46;8.77;;;3.65;;
28519;SDS011;15732;48.534;20.382;2022-10-17T05:56:13;8.45;;;2.97;;
28519;SDS011;15732;48.534;20.382;2022-10-17T05:58:41;4.72;;;1.98;;
28519;SDS011;15732;48.534;20.382;2022-10-17T06:01:10;9.68;;;3.30;;
28519;SDS011;15732;48.534;20.382;2022-10-17T06:03:38;8.50;;;2.05;;
28519;SDS011;15732;48.534;20.382;2022-10-17T06:06:07;7.85;;;3.25;;
28519;SDS011;15732;48.534;20.382;2022-10-17T06:08:37;7.93;;;2.55;;
28519;SDS011;15732;48.534;20.382;2022-10-17T06:11:04;4.97;;;2.58;;
28519;SDS011;15732;48.534;20.382;2022-10-17T06:13:31;5.88;;;2.63;;
28519;SDS011;15732;48.534;20.382;2022-10-17T06:15:59;7.95;;;3.10;;
28519;SDS011;15732;48.534;20.382;2022-10-17T06:18:26;5.10;;;2.30;;
28519;SDS011;15732;48.534;20.382;2022-10-17T06:21:00;6.85;;;2.58;;
28519;SDS011;15732;48.534;20.382;2022-10-17T06:23:32;7.47;;;3.38;;
28519;SDS011;15732;48.534;20.382;2022-10-17T06:26:00;4.53;;;2.35;;
28519;SDS011;15732;48.534;20.382;2022-10-17T06:28:29;5.13;;;2.28;;
28519;SDS011;15732;48.534;20.382;2022-10-17T06:31:07;6.80;;;2.53;;
28519;SDS011;15732;48.534;20.382;2022-10-17T06:33:36;4.53;;;2.03;;
28519;SDS011;15732;48.534;20.382;2022-10-17T06:36:05;10.18;;;3.65;;
28519;SDS011;15732;48.534;20.382;2022-10-17T06:38:36;8.45;;;3.58;;
28519;SDS011;15732;48.534;20.382;2022-10-17T06:41:03;7.47;;;2.65;;
28519;SDS011;15732;48.534;20.382;2022-10-17T06:43:46;6.72;;;2.65;;
28519;SDS011;15732;48.534;20.382;2022-10-17T06:46:17;6.10;;;2.47;;
28519;SDS011;15732;48.534;20.382;2022-10-17T06:48:49;5.72;;;2.63;;
28519;SDS011;15732;48.534;20.382;2022-10-17T06:51:15;8.23;;;3.00;;
28519;SDS011;15732;48.534;20.382;2022-10-17T06:53:43;5.38;;;2.25;;
28519;SDS011;15732;48.534;20.382;2022-10-17T06:56:10;5.78;;;2.30;;
28519;SDS011;15732;48.534;20.382;2022-10-17T06:58:38;4.93;;;2.30;;
28519;SDS011;15732;48.534;20.382;2022-10-17T07:01:09;6.32;;;2.50;;
28519;SDS011;15732;48.534;20.382;2022-10-17T07:03:57;6.43;;;2.65;;
28519;SDS011;15732;48.534;20.382;2022-10-17T07:06:24;5.85;;;2.58;;
28519;SDS011;15732;48.534;20.382;2022-10-17T07:08:55;7.50;;;3.47;;
28519;SDS011;15732;48.534;20.382;2022-10-17T07:11:23;6.97;;;3.00;;
28519;SDS011;15732;48.534;20.382;2022-10-17T07:13:51;10.77;;;3.33;;
28519;SDS011;15732;48.534;20.382;2022-10-17T07:16:18;7.28;;;3.20;;
28519;SDS011;15732;48.534;20.382;2022-10-17T07:18:50;4.35;;;2.63;;
28519;SDS011;15732;48.534;20.382;2022-10-17T07:21:19;6.43;;;3.17;;
28519;SDS011;15732;48.534;20.382;2022-10-17T07:23:46;18.25;;;3.95;;
28519;SDS011;15732;48.534;20.382;2022-10-17T07:26:15;8.38;;;3.33;;
28519;SDS011;15732;48.534;20.382;2022-10-17T07:28:50;6.05;;;3.25;;
28519;SDS011;15732;48.534;20.382;2022-10-17T07:31:22;6.13;;;2.38;;
28519;SDS011;15732;48.534;20.382;2022-10-17T07:33:50;6.13;;;3.28;;
28519;SDS011;15732;48.534;20.382;2022-10-17T07:36:20;8.93;;;3.72;;
28519;SDS011;15732;48.534;20.382;2022-10-17T07:38:48;6.55;;;2.47;;
28519;SDS011;15732;48.534;20.382;2022-10-17T07:41:15;11.65;;;2.90;;
28519;SDS011;15732;48.534;20.382;2022-10-17T07:43:44;6.93;;;2.83;;
28519;SDS011;15732;48.534;20.382;2022-10-17T07:46:11;7.78;;;2.65;;
28519;SDS011;15732;48.534;20.382;2022-10-17T07:48:39;6.18;;;2.03;;
28519;SDS011;15732;48.534;20.382;2022-10-17T07:51:10;5.60;;;1.92;;
28519;SDS011;15732;48.534;20.382;2022-10-17T07:53:37;14.10;;;3.30;;
28519;SDS011;15732;48.534;20.382;2022-10-17T07:56:10;6.75;;;3.15;;
28519;SDS011;15732;48.534;20.382;2022-10-17T07:58:41;6.30;;;2.58;;
28519;SDS011;15732;48.534;20.382;2022-10-17T08:01:09;8.25;;;3.38;;
28519;SDS011;15732;48.534;20.382;2022-10-17T08:03:40;6.18;;;3.35;;
28519;SDS011;15732;48.534;20.382;2022-10-17T08:06:11;6.57;;;3.13;;
28519;SDS011;15732;48.534;20.382;2022-10-17T08:08:38;6.88;;;2.33;;
28519;SDS011;15732;48.534;20.382;2022-10-17T08:11:10;5.72;;;2.55;;
28519;SDS011;15732;48.534;20.382;2022-10-17T08:13:39;6.00;;;2.88;;
28519;SDS011;15732;48.534;20.382;2022-10-17T08:16:07;12.07;;;2.95;;
28519;SDS011;15732;48.534;20.382;2022-10-17T08:18:37;6.18;;;2.83;;
28519;SDS011;15732;48.534;20.382;2022-10-17T08:21:05;5.70;;;2.85;;
28519;SDS011;15732;48.534;20.382;2022-10-17T08:23:33;5.65;;;2.67;;
28519;SDS011;15732;48.534;20.382;2022-10-17T08:26:01;9.50;;;2.58;;
28519;SDS011;15732;48.534;20.382;2022-10-17T08:28:29;7.65;;;2.53;;
28519;SDS011;15732;48.534;20.382;2022-10-17T08:31:06;19.02;;;3.50;;
28519;SDS011;15732;48.534;20.382;2022-10-17T08:33:36;9.73;;;2.75;;
28519;SDS011;15732;48.534;20.382;2022-10-17T08:36:04;7.53;;;2.70;;
28519;SDS011;15732;48.534;20.382;2022-10-17T08:38:33;5.10;;;1.98;;
28519;SDS011;15732;48.534;20.382;2022-10-17T08:41:12;8.10;;;3.72;;
28519;SDS011;15732;48.534;20.382;2022-10-17T08:43:57;6.22;;;2.88;;
28519;SDS011;15732;48.534;20.382;2022-10-17T08:46:49;4.75;;;2.05;;
28519;SDS011;15732;48.534;20.382;2022-10-17T08:54:59;4.32;;;2.40;;
28519;SDS011;15732;48.534;20.382;2022-10-17T08:57:30;7.00;;;2.35;;
28519;SDS011;15732;48.534;20.382;2022-10-17T08:59:57;5.65;;;2.75;;
28519;SDS011;15732;48.534;20.382;2022-10-17T09:02:34;7.22;;;3.17;;
28519;SDS011;15732;48.534;20.382;2022-10-17T09:05:23;6.57;;;2.85;;
28519;SDS011;15732;48.534;20.382;2022-10-17T09:08:02;7.78;;;2.67;;
28519;SDS011;15732;48.534;20.382;2022-10-17T09:18:57;6.15;;;2.10;;
28519;SDS011;15732;48.534;20.382;2022-10-17T09:21:42;5.10;;;1.70;;
28519;SDS011;15732;48.534;20.382;2022-10-17T09:24:23;4.97;;;2.10;;
28519;SDS011;15732;48.534;20.382;2022-10-17T09:38:20;5.45;;;2.08;;
28519;SDS011;15732;48.534;20.382;2022-10-17T09:40:56;5.60;;;2.20;;
28519;SDS011;15732;48.534;20.382;2022-10-17T09:43:25;6.28;;;2.55;;
28519;SDS011;15732;48.534;20.382;2022-10-17T09:45:58;9.63;;;2.77;;
28519;SDS011;15732;48.534;20.382;2022-10-17T09:48:41;5.10;;;2.03;;
28519;SDS011;15732;48.534;20.382;2022-10-17T09:51:15;3.72;;;1.80;;
28519;SDS011;15732;48.534;20.382;2022-10-17T09:53:44;7.65;;;2.55;;
28519;SDS011;15732;48.534;20.382;2022-10-17T09:56:18;6.97;;;2.67;;
28519;SDS011;15732;48.534;20.382;2022-10-17T09:58:49;5.13;;;2.60;;
28519;SDS011;15732;48.534;20.382;2022-10-17T10:04:10;5.40;;;2.20;;
28519;SDS011;15732;48.534;20.382;2022-10-17T10:07:02;4.68;;;2.85;;
28519;SDS011;15732;48.534;20.382;2022-10-17T10:09:35;10.43;;;3.72;;
28519;SDS011;15732;48.534;20.382;2022-10-17T10:12:14;7.65;;;4.00;;
28519;SDS011;15732;48.534;20.382;2022-10-17T10:15:16;6.68;;;3.25;;
28519;SDS011;15732;48.534;20.382;2022-10-17T10:17:57;11.68;;;4.68;;
28519;SDS011;15732;48.534;20.382;2022-10-17T10:20:27;6.05;;;3.20;;
28519;SDS011;15732;48.534;20.382;2022-10-17T10:26:17;5.43;;;2.53;;
28519;SDS011;15732;48.534;20.382;2022-10-17T10:28:49;18.15;;;2.95;;
28519;SDS011;15732;48.534;20.382;2022-10-17T10:31:37;8.32;;;2.70;;
28519;SDS011;15732;48.534;20.382;2022-10-17T10:34:24;8.75;;;3.05;;
28519;SDS011;15732;48.534;20.382;2022-10-17T10:39:40;9.55;;;2.83;;
28519;SDS011;15732;48.534;20.382;2022-10-17T10:42:17;5.45;;;2.58;;
28519;SDS011;15732;48.534;20.382;2022-10-17T10:44:46;5.80;;;2.58;;
28519;SDS011;15732;48.534;20.382;2022-10-17T10:47:19;7.47;;;3.05;;
28519;SDS011;15732;48.534;20.382;2022-10-17T10:49:46;5.13;;;2.47;;
28519;SDS011;15732;48.534;20.382;2022-10-17T10:52:18;6.00;;;2.55;;
28519;SDS011;15732;48.534;20.382;2022-10-17T10:55:28;5.72;;;2.90;;
28519;SDS011;15732;48.534;20.382;2022-10-17T10:58:00;4.18;;;1.85;;
28519;SDS011;15732;48.534;20.382;2022-10-17T11:00:32;5.95;;;2.35;;
28519;SDS011;15732;48.534;20.382;2022-10-17T11:03:12;4.93;;;2.67;;
28519;SDS011;15732;48.534;20.382;2022-10-17T11:05:49;6.15;;;1.98;;
28519;SDS011;15732;48.534;20.382;2022-10-17T11:13:50;5.47;;;2.17;;
28519;SDS011;15732;48.534;20.382;2022-10-17T11:16:34;4.47;;;2.10;;
28519;SDS011;15732;48.534;20.382;2022-10-17T11:19:08;5.90;;;2.10;;
28519;SDS011;15732;48.534;20.382;2022-10-17T11:24:54;4.47;;;1.88;;
28519;SDS011;15732;48.534;20.382;2022-10-17T11:27:24;5.00;;;1.90;;
28519;SDS011;15732;48.534;20.382;2022-10-17T11:29:55;6.63;;;2.13;;
28519;SDS011;15732;48.534;20.382;2022-10-17T11:32:40;4.82;;;1.75;;
28519;SDS011;15732;48.534;20.382;2022-10-17T11:35:22;5.30;;;2.30;;
28519;SDS011;15732;48.534;20.382;2022-10-17T11:40:29;5.63;;;2.33;;
28519;SDS011;15732;48.534;20.382;2022-10-17T11:43:16;4.72;;;2.10;;
28519;SDS011;15732;48.534;20.382;2022-10-17T11:45:52;4.22;;;1.88;;
28519;SDS011;15732;48.534;20.382;2022-10-17T11:48:31;5.55;;;1.95;;
28519;SDS011;15732;48.534;20.382;2022-10-17T11:51:09;4.20;;;2.00;;
28519;SDS011;15732;48.534;20.382;2022-10-17T11:53:44;6.20;;;2.25;;
28519;SDS011;15732;48.534;20.382;2022-10-17T11:56:38;4.25;;;1.98;;
28519;SDS011;15732;48.534;20.382;2022-10-17T12:02:18;7.03;;;1.67;;
28519;SDS011;15732;48.534;20.382;2022-10-17T12:05:03;4.25;;;1.75;;
28519;SDS011;15732;48.534;20.382;2022-10-17T12:08:06;7.43;;;2.50;;
28519;SDS011;15732;48.534;20.382;2022-10-17T12:21:26;5.22;;;2.05;;
28519;SDS011;15732;48.534;20.382;2022-10-17T12:23:54;4.15;;;2.20;;
28519;SDS011;15732;48.534;20.382;2022-10-17T12:26:24;6.47;;;1.90;;
28519;SDS011;15732;48.534;20.382;2022-10-17T12:28:53;2.95;;;1.23;;
28519;SDS011;15732;48.534;20.382;2022-10-17T12:31:22;7.18;;;2.20;;
28519;SDS011;15732;48.534;20.382;2022-10-17T12:33:51;4.03;;;1.23;;
28519;SDS011;15732;48.534;20.382;2022-10-17T12:38:48;8.07;;;1.67;;
28519;SDS011;15732;48.534;20.382;2022-10-17T12:54:57;3.65;;;1.20;;
28519;SDS011;15732;48.534;20.382;2022-10-17T12:57:35;5.05;;;1.70;;
28519;SDS011;15732;48.534;20.382;2022-10-17T13:00:19;4.45;;;1.60;;
28519;SDS011;15732;48.534;20.382;2022-10-17T13:02:50;4.10;;;1.60;;
28519;SDS011;15732;48.534;20.382;2022-10-17T13:05:26;4.60;;;1.40;;
28519;SDS011;15732;48.534;20.382;2022-10-17T13:08:00;6.57;;;1.88;;
28519;SDS011;15732;48.534;20.382;2022-10-17T13:10:31;2.95;;;1.38;;
28519;SDS011;15732;48.534;20.382;2022-10-17T13:13:18;3.28;;;1.52;;
28519;SDS011;15732;48.534;20.382;2022-10-17T13:16:05;3.75;;;1.35;;
28519;SDS011;15732;48.534;20.382;2022-10-17T13:18:33;3.95;;;1.55;;
28519;SDS011;15732;48.534;20.382;2022-10-17T13:21:02;4.70;;;1.77;;
28519;SDS011;15732;48.534;20.382;2022-10-17T13:23:44;4.63;;;1.70;;
28519;SDS011;15732;48.534;20.382;2022-10-17T13:31:41;3.75;;;1.55;;
28519;SDS011;15732;48.534;20.382;2022-10-17T13:34:16;10.15;;;1.42;;
28519;SDS011;15732;48.534;20.382;2022-10-17T13:36:45;4.30;;;1.33;;
28519;SDS011;15732;48.534;20.382;2022-10-17T13:39:15;2.15;;;1.17;;
28519;SDS011;15732;48.534;20.382;2022-10-17T13:41:48;3.67;;;1.55;;
28519;SDS011;15732;48.534;20.382;2022-10-17T13:44:22;4.00;;;1.50;;
28519;SDS011;15732;48.534;20.382;2022-10-17T13:46:51;2.80;;;1.13;;
28519;SDS011;15732;48.534;20.382;2022-10-17T13:49:21;3.35;;;1.25;;
28519;SDS011;15732;48.534;20.382;2022-10-17T13:51:59;5.68;;;1.48;;
28519;SDS011;15732;48.534;20.382;2022-10-17T13:57:42;2.88;;;1.55;;
28519;SDS011;15732;48.534;20.382;2022-10-17T14:00:18;2.95;;;1.35;;
28519;SDS011;15732;48.534;20.382;2022-10-17T14:02:46;2.30;;;1.10;;
28519;SDS011;15732;48.534;20.382;2022-10-17T14:05:15;3.50;;;1.40;;
28519;SDS011;15732;48.534;20.382;2022-10-17T14:07:58;3.03;;;1.25;;
28519;SDS011;15732;48.534;20.382;2022-10-17T14:10:30;7.55;;;1.60;;
28519;SDS011;15732;48.534;20.382;2022-10-17T14:13:00;4.68;;;1.50;;
28519;SDS011;15732;48.534;20.382;2022-10-17T14:15:33;3.45;;;1.88;;
28519;SDS011;15732;48.534;20.382;2022-10-17T14:18:06;7.03;;;1.15;;
28519;SDS011;15732;48.534;20.382;2022-10-17T14:20:34;5.13;;;1.95;;
28519;SDS011;15732;48.534;20.382;2022-10-17T14:23:24;4.38;;;1.45;;
28519;SDS011;15732;48.534;20.382;2022-10-17T14:28:47;4.95;;;1.77;;
28519;SDS011;15732;48.534;20.382;2022-10-17T14:31:35;4.07;;;1.55;;
28519;SDS011;15732;48.534;20.382;2022-10-17T14:34:03;3.47;;;1.63;;
28519;SDS011;15732;48.534;20.382;2022-10-17T14:36:31;3.75;;;1.67;;
28519;SDS011;15732;48.534;20.382;2022-10-17T14:39:00;8.15;;;2.08;;
28519;SDS011;15732;48.534;20.382;2022-10-17T14:41:30;3.45;;;1.77;;
28519;SDS011;15732;48.534;20.382;2022-10-17T14:44:00;4.28;;;2.08;;
28519;SDS011;15732;48.534;20.382;2022-10-17T14:46:31;4.43;;;1.63;;
28519;SDS011;15732;48.534;20.382;2022-10-17T14:49:07;4.65;;;2.03;;
28519;SDS011;15732;48.534;20.382;2022-10-17T14:54:50;11.00;;;3.33;;
28519;SDS011;15732;48.534;20.382;2022-10-17T15:00:15;10.45;;;3.15;;
28519;SDS011;15732;48.534;20.382;2022-10-17T15:02:44;6.60;;;2.53;;
28519;SDS011;15732;48.534;20.382;2022-10-17T15:05:16;8.75;;;3.22;;
28519;SDS011;15732;48.534;20.382;2022-10-17T15:07:42;6.03;;;2.60;;
28519;SDS011;15732;48.534;20.382;2022-10-17T15:13:00;5.10;;;2.60;;
28519;SDS011;15732;48.534;20.382;2022-10-17T15:15:32;8.88;;;3.40;;
28519;SDS011;15732;48.534;20.382;2022-10-17T15:18:03;8.43;;;2.70;;
28519;SDS011;15732;48.534;20.382;2022-10-17T15:20:30;6.38;;;2.22;;
28519;SDS011;15732;48.534;20.382;2022-10-17T15:22:59;8.98;;;4.40;;
28519;SDS011;15732;48.534;20.382;2022-10-17T15:25:27;21.25;;;6.72;;
28519;SDS011;15732;48.534;20.382;2022-10-17T15:27:56;19.67;;;6.68;;
28519;SDS011;15732;48.534;20.382;2022-10-17T15:30:28;28.58;;;8.23;;
28519;SDS011;15732;48.534;20.382;2022-10-17T15:32:57;56.42;;;21.55;;
28519;SDS011;15732;48.534;20.382;2022-10-17T15:35:25;59.35;;;24.50;;
28519;SDS011;15732;48.534;20.382;2022-10-17T15:37:57;58.33;;;22.23;;
28519;SDS011;15732;48.534;20.382;2022-10-17T15:40:28;60.22;;;24.73;;
28519;SDS011;15732;48.534;20.382;2022-10-17T15:42:56;58.58;;;20.52;;
28519;SDS011;15732;48.534;20.382;2022-10-17T15:45:23;41.60;;;16.85;;
28519;SDS011;15732;48.534;20.382;2022-10-17T15:47:51;49.50;;;17.80;;
28519;SDS011;15732;48.534;20.382;2022-10-17T15:50:28;33.28;;;13.75;;
28519;SDS011;15732;48.534;20.382;2022-10-17T15:52:56;41.30;;;14.93;;
28519;SDS011;15732;48.534;20.382;2022-10-17T15:55:23;44.15;;;14.85;;
28519;SDS011;15732;48.534;20.382;2022-10-17T15:57:51;50.08;;;19.58;;
28519;SDS011;15732;48.534;20.382;2022-10-17T16:00:19;57.42;;;23.63;;
28519;SDS011;15732;48.534;20.382;2022-10-17T16:02:51;91.03;;;32.10;;
28519;SDS011;15732;48.534;20.382;2022-10-17T16:05:23;100.53;;;36.97;;
28519;SDS011;15732;48.534;20.382;2022-10-17T16:07:54;94.20;;;37.63;;
28519;SDS011;15732;48.534;20.382;2022-10-17T16:10:22;85.95;;;34.08;;
28519;SDS011;15732;48.534;20.382;2022-10-17T16:12:50;83.40;;;33.38;;
28519;SDS011;15732;48.534;20.382;2022-10-17T16:15:22;59.67;;;26.52;;
28519;SDS011;15732;48.534;20.382;2022-10-17T16:17:51;76.03;;;30.15;;
28519;SDS011;15732;48.534;20.382;2022-10-17T16:20:23;53.60;;;22.77;;
28519;SDS011;15732;48.534;20.382;2022-10-17T16:22:51;51.38;;;22.35;;
28519;SDS011;15732;48.534;20.382;2022-10-17T16:25:25;68.22;;;29.58;;
28519;SDS011;15732;48.534;20.382;2022-10-17T16:27:54;48.08;;;17.13;;
28519;SDS011;15732;48.534;20.382;2022-10-17T16:30:22;42.92;;;19.83;;
28519;SDS011;15732;48.534;20.382;2022-10-17T16:32:51;51.50;;;22.73;;
28519;SDS011;15732;48.534;20.382;2022-10-17T16:35:19;76.15;;;31.17;;
28519;SDS011;15732;48.534;20.382;2022-10-17T16:37:52;103.25;;;39.10;;
28519;SDS011;15732;48.534;20.382;2022-10-17T16:40:19;90.43;;;34.53;;
28519;SDS011;15732;48.534;20.382;2022-10-17T16:42:47;81.40;;;31.10;;
28519;SDS011;15732;48.534;20.382;2022-10-17T16:45:15;75.63;;;30.00;;
28519;SDS011;15732;48.534;20.382;2022-10-17T16:47:44;88.95;;;34.83;;
28519;SDS011;15732;48.534;20.382;2022-10-17T16:50:11;83.90;;;33.83;;
28519;SDS011;15732;48.534;20.382;2022-10-17T16:52:38;83.97;;;36.50;;
28519;SDS011;15732;48.534;20.382;2022-10-17T16:55:05;112.22;;;44.88;;
28519;SDS011;15732;48.534;20.382;2022-10-17T16:57:32;110.68;;;43.00;;
28519;SDS011;15732;48.534;20.382;2022-10-17T16:59:59;96.90;;;40.50;;
28519;SDS011;15732;48.534;20.382;2022-10-17T17:02:27;128.35;;;50.05;;